AMV76T LIMC-LYPG
Flight info
| Callsign | AMV76T |
|---|---|
| Flight time | 1h 16m |
| Altitude | 35000 |
| Route | ROBAS DCT IPDAB DCT LUMAV DCT NIKOL DCT MOKUN L187 BIGLO |
| Aircraft | A320/M-SDE3FGHIRWY/LB1 |
Departure
| Time | 2026-05-09 11:08 |
|---|---|
| Airport | Milan Malpensa International Airport (LIMC) |
Arrival
| Time | 2026-05-09 12:24 |
|---|---|
| Airport | Podgorica Airport / Podgorica Golubovci Airbase (LYPG) |
| Time | Latitude | Longitude | Altitude | Speed | Heading |
|---|---|---|---|---|---|
| 2026-05-09 10:27 | 45.62882 | 8.71864 | 752 ft | 0 kts | 79° |
| 2026-05-09 10:56 | 45.62881 | 8.71853 | 749 ft | 4 kts | 81° |
| 2026-05-09 10:56 | 45.62878 | 8.71818 | 750 ft | 2 kts | 82° |
| 2026-05-09 10:57 | 45.62878 | 8.71784 | 750 ft | 4 kts | 122° |
| 2026-05-09 10:57 | 45.62897 | 8.71764 | 748 ft | 3 kts | 167° |
| 2026-05-09 10:57 | 45.62905 | 8.71761 | 750 ft | 0 kts | 168° |
| 2026-05-09 10:59 | 45.62863 | 8.71773 | 750 ft | 13 kts | 169° |
| 2026-05-09 10:59 | 45.62747 | 8.71803 | 748 ft | 21 kts | 169° |
| 2026-05-09 11:00 | 45.62581 | 8.71848 | 751 ft | 28 kts | 169° |
| 2026-05-09 11:00 | 45.62388 | 8.71902 | 753 ft | 29 kts | 168° |
| 2026-05-09 11:00 | 45.62194 | 8.71956 | 753 ft | 29 kts | 169° |
| 2026-05-09 11:00 | 45.62007 | 8.72007 | 753 ft | 27 kts | 169° |
| 2026-05-09 11:01 | 45.61817 | 8.72060 | 753 ft | 28 kts | 169° |
| 2026-05-09 11:01 | 45.61621 | 8.72115 | 752 ft | 29 kts | 169° |
| 2026-05-09 11:01 | 45.61420 | 8.72170 | 753 ft | 28 kts | 169° |
| 2026-05-09 11:01 | 45.61231 | 8.72222 | 753 ft | 28 kts | 169° |
| 2026-05-09 11:02 | 45.61054 | 8.72271 | 752 ft | 26 kts | 169° |
| 2026-05-09 11:02 | 45.60873 | 8.72320 | 751 ft | 27 kts | 169° |
| 2026-05-09 11:02 | 45.60754 | 8.72353 | 753 ft | 22 kts | 169° |
| 2026-05-09 11:02 | 45.60649 | 8.72434 | 750 ft | 17 kts | 117° |
| 2026-05-09 11:03 | 45.60630 | 8.72606 | 753 ft | 18 kts | 96° |
| 2026-05-09 11:03 | 45.60610 | 8.72861 | 752 ft | 21 kts | 95° |
| 2026-05-09 11:03 | 45.60600 | 8.73004 | 754 ft | 22 kts | 96° |
| 2026-05-09 11:03 | 45.60615 | 8.73248 | 752 ft | 15 kts | 50° |
| 2026-05-09 11:04 | 45.60673 | 8.73294 | 752 ft | 14 kts | 19° |
| 2026-05-09 11:04 | 45.60768 | 8.73348 | 752 ft | 17 kts | 23° |
| 2026-05-09 11:04 | 45.60897 | 8.73405 | 754 ft | 21 kts | 357° |
| 2026-05-09 11:04 | 45.61047 | 8.73364 | 751 ft | 23 kts | 347° |
| 2026-05-09 11:05 | 45.61209 | 8.73320 | 752 ft | 25 kts | 350° |
| 2026-05-09 11:05 | 45.61386 | 8.73273 | 749 ft | 27 kts | 349° |
| 2026-05-09 11:05 | 45.61547 | 8.73228 | 751 ft | 15 kts | 349° |
| 2026-05-09 11:05 | 45.61607 | 8.73241 | 750 ft | 7 kts | 44° |
| 2026-05-09 11:06 | 45.61621 | 8.73308 | 752 ft | 9 kts | 80° |
| 2026-05-09 11:06 | 45.61629 | 8.73427 | 753 ft | 13 kts | 101° |
| 2026-05-09 11:06 | 45.61590 | 8.73539 | 751 ft | 14 kts | 109° |
| 2026-05-09 11:06 | 45.61593 | 8.73674 | 743 ft | 12 kts | 70° |
| 2026-05-09 11:07 | 45.61656 | 8.73725 | 745 ft | 12 kts | 358° |
| 2026-05-09 11:07 | 45.61912 | 8.73655 | 743 ft | 75 kts | 348° |
| 2026-05-09 11:07 | 45.62653 | 8.73452 | 745 ft | 139 kts | 349° |
| 2026-05-09 11:07 | 45.63760 | 8.73154 | 915 ft | 174 kts | 351° |
| 2026-05-09 11:08 | 45.64976 | 8.72914 | 1652 ft | 179 kts | 0° |
| 2026-05-09 11:08 | 45.66115 | 8.73523 | 2411 ft | 181 kts | 45° |
| 2026-05-09 11:08 | 45.66770 | 8.75134 | 2869 ft | 198 kts | 70° |
| 2026-05-09 11:08 | 45.67446 | 8.76906 | 3352 ft | 214 kts | 50° |
| 2026-05-09 11:09 | 45.68487 | 8.78411 | 4113 ft | 212 kts | 44° |
| 2026-05-09 11:09 | 45.69588 | 8.79838 | 4820 ft | 218 kts | 42° |
| 2026-05-09 11:09 | 45.70749 | 8.81271 | 5568 ft | 221 kts | 41° |
| 2026-05-09 11:09 | 45.71908 | 8.82700 | 6435 ft | 224 kts | 44° |
| 2026-05-09 11:10 | 45.72735 | 8.84645 | 6960 ft | 240 kts | 80° |
| 2026-05-09 11:10 | 45.72625 | 8.87025 | 7723 ft | 244 kts | 110° |
| 2026-05-09 11:10 | 45.71799 | 8.89153 | 8551 ft | 247 kts | 127° |
| 2026-05-09 11:10 | 45.70732 | 8.91117 | 9447 ft | 252 kts | 131° |
| 2026-05-09 11:11 | 45.69593 | 8.93043 | 10462 ft | 256 kts | 131° |
| 2026-05-09 11:11 | 45.68440 | 8.95015 | 11486 ft | 261 kts | 131° |
| 2026-05-09 11:11 | 45.67306 | 8.97039 | 12421 ft | 266 kts | 129° |
| 2026-05-09 11:11 | 45.66168 | 8.99154 | 13357 ft | 270 kts | 129° |
| 2026-05-09 11:12 | 45.65031 | 9.01324 | 14245 ft | 275 kts | 128° |
| 2026-05-09 11:12 | 45.63879 | 9.03302 | 14799 ft | 287 kts | 134° |
| 2026-05-09 11:12 | 45.62483 | 9.05494 | 15052 ft | 310 kts | 134° |
| 2026-05-09 11:12 | 45.61145 | 9.07588 | 15216 ft | 330 kts | 134° |
| 2026-05-09 11:13 | 45.59668 | 9.09896 | 15385 ft | 351 kts | 134° |
| 2026-05-09 11:13 | 45.57997 | 9.12516 | 15856 ft | 362 kts | 134° |
| 2026-05-09 11:13 | 45.56331 | 9.15135 | 16436 ft | 368 kts | 134° |
| 2026-05-09 11:13 | 45.54582 | 9.17889 | 17049 ft | 374 kts | 135° |
| 2026-05-09 11:14 | 45.52819 | 9.20660 | 17659 ft | 380 kts | 135° |
| 2026-05-09 11:14 | 45.51322 | 9.23006 | 18165 ft | 386 kts | 135° |
| 2026-05-09 11:14 | 45.49499 | 9.25859 | 18722 ft | 391 kts | 135° |
| 2026-05-09 11:14 | 45.47655 | 9.28741 | 19272 ft | 396 kts | 135° |
| 2026-05-09 11:15 | 45.46425 | 9.30661 | 19629 ft | 400 kts | 135° |
| 2026-05-09 11:15 | 45.44848 | 9.33125 | 20105 ft | 403 kts | 135° |
| 2026-05-09 11:15 | 45.42964 | 9.36064 | 20657 ft | 407 kts | 136° |
| 2026-05-09 11:15 | 45.41281 | 9.38688 | 21175 ft | 411 kts | 136° |
| 2026-05-09 11:16 | 45.39342 | 9.41708 | 21719 ft | 415 kts | 136° |
| 2026-05-09 11:16 | 45.37381 | 9.44754 | 22232 ft | 419 kts | 136° |
| 2026-05-09 11:16 | 45.35826 | 9.47165 | 22646 ft | 422 kts | 136° |
| 2026-05-09 11:16 | 45.33905 | 9.50143 | 23141 ft | 426 kts | 136° |
| 2026-05-09 11:17 | 45.31893 | 9.53261 | 23639 ft | 430 kts | 136° |
| 2026-05-09 11:17 | 45.30147 | 9.55961 | 24013 ft | 434 kts | 136° |
| 2026-05-09 11:17 | 45.28295 | 9.58824 | 24415 ft | 436 kts | 136° |
| 2026-05-09 11:17 | 45.26373 | 9.61794 | 24829 ft | 439 kts | 136° |
| 2026-05-09 11:18 | 45.24754 | 9.64297 | 25170 ft | 441 kts | 137° |
| 2026-05-09 11:18 | 45.22672 | 9.67511 | 25601 ft | 444 kts | 137° |
| 2026-05-09 11:18 | 45.20738 | 9.70886 | 25984 ft | 451 kts | 128° |
| 2026-05-09 11:18 | 45.19379 | 9.74138 | 26324 ft | 458 kts | 118° |
| 2026-05-09 11:19 | 45.18264 | 9.78025 | 26696 ft | 463 kts | 108° |
| 2026-05-09 11:19 | 45.17397 | 9.82375 | 27101 ft | 466 kts | 107° |
| 2026-05-09 11:19 | 45.16517 | 9.86807 | 27507 ft | 469 kts | 107° |
| 2026-05-09 11:19 | 45.15642 | 9.91123 | 27894 ft | 472 kts | 108° |
| 2026-05-09 11:20 | 45.14727 | 9.95603 | 28304 ft | 475 kts | 108° |
| 2026-05-09 11:20 | 45.13805 | 10.00102 | 28665 ft | 477 kts | 108° |
| 2026-05-09 11:20 | 45.12898 | 10.04533 | 29146 ft | 478 kts | 108° |
| 2026-05-09 11:20 | 45.11973 | 10.09055 | 29496 ft | 481 kts | 108° |
| 2026-05-09 11:21 | 45.11037 | 10.13621 | 29854 ft | 484 kts | 108° |
| 2026-05-09 11:21 | 45.10095 | 10.18209 | 30231 ft | 487 kts | 108° |
| 2026-05-09 11:21 | 45.09142 | 10.22823 | 30542 ft | 490 kts | 108° |
| 2026-05-09 11:21 | 45.08412 | 10.26349 | 30769 ft | 492 kts | 108° |
| 2026-05-09 11:22 | 45.07467 | 10.30912 | 31060 ft | 495 kts | 109° |
| 2026-05-09 11:22 | 45.06499 | 10.35598 | 31359 ft | 498 kts | 109° |
| 2026-05-09 11:22 | 45.05523 | 10.40315 | 31645 ft | 501 kts | 109° |
| 2026-05-09 11:22 | 45.04541 | 10.45042 | 31973 ft | 502 kts | 109° |
| 2026-05-09 11:23 | 45.03626 | 10.49430 | 32310 ft | 503 kts | 109° |
| 2026-05-09 11:23 | 45.02630 | 10.54176 | 32664 ft | 504 kts | 109° |
| 2026-05-09 11:23 | 45.01682 | 10.58665 | 33019 ft | 504 kts | 109° |
| 2026-05-09 11:23 | 45.00667 | 10.63462 | 33409 ft | 504 kts | 110° |
| 2026-05-09 11:24 | 44.99664 | 10.68214 | 33784 ft | 505 kts | 110° |
| 2026-05-09 11:24 | 44.98677 | 10.72897 | 34154 ft | 505 kts | 110° |
| 2026-05-09 11:24 | 44.97675 | 10.77651 | 34468 ft | 505 kts | 110° |
| 2026-05-09 11:24 | 44.96676 | 10.82381 | 34765 ft | 506 kts | 109° |
| 2026-05-09 11:25 | 44.95673 | 10.87166 | 35045 ft | 506 kts | 109° |
| 2026-05-09 11:25 | 44.93920 | 10.96206 | 35151 ft | 495 kts | 107° |
| 2026-05-09 11:26 | 44.92220 | 11.05572 | 35161 ft | 491 kts | 107° |
| 2026-05-09 11:26 | 44.90544 | 11.14644 | 35160 ft | 490 kts | 108° |
| 2026-05-09 11:27 | 44.88812 | 11.23678 | 35166 ft | 490 kts | 108° |
| 2026-05-09 11:27 | 44.87025 | 11.32889 | 35165 ft | 490 kts | 108° |
| 2026-05-09 11:28 | 44.85300 | 11.41843 | 35158 ft | 490 kts | 108° |
| 2026-05-09 11:28 | 44.83506 | 11.51101 | 35143 ft | 490 kts | 108° |
| 2026-05-09 11:29 | 44.81753 | 11.60084 | 35139 ft | 490 kts | 109° |
| 2026-05-09 11:29 | 44.79515 | 11.68678 | 35127 ft | 487 kts | 115° |
| 2026-05-09 11:30 | 44.77101 | 11.77426 | 35103 ft | 487 kts | 115° |
| 2026-05-09 11:30 | 44.74641 | 11.86306 | 35111 ft | 487 kts | 115° |
| 2026-05-09 11:31 | 44.72386 | 11.94429 | 35108 ft | 488 kts | 115° |
| 2026-05-09 11:31 | 44.69916 | 12.03317 | 35104 ft | 488 kts | 115° |
| 2026-05-09 11:32 | 44.67650 | 12.11425 | 35106 ft | 488 kts | 115° |
| 2026-05-09 11:32 | 44.65165 | 12.20267 | 35101 ft | 488 kts | 115° |
| 2026-05-09 11:33 | 44.62687 | 12.29067 | 35101 ft | 488 kts | 115° |
| 2026-05-09 11:33 | 44.58941 | 12.42308 | 35100 ft | 489 kts | 115° |
| 2026-05-09 11:34 | 44.56426 | 12.51167 | 35100 ft | 489 kts | 115° |
| 2026-05-09 11:34 | 44.53903 | 12.60025 | 35092 ft | 490 kts | 115° |
| 2026-05-09 11:35 | 44.51363 | 12.68887 | 35094 ft | 490 kts | 115° |
| 2026-05-09 11:35 | 44.48817 | 12.77745 | 35087 ft | 490 kts | 115° |
| 2026-05-09 11:36 | 44.46262 | 12.86607 | 35053 ft | 491 kts | 115° |
| 2026-05-09 11:36 | 44.43704 | 12.95468 | 35077 ft | 491 kts | 115° |
| 2026-05-09 11:37 | 44.41136 | 13.04322 | 35084 ft | 491 kts | 115° |
| 2026-05-09 11:37 | 44.38563 | 13.13156 | 35086 ft | 491 kts | 115° |
| 2026-05-09 11:38 | 44.35977 | 13.21981 | 35094 ft | 491 kts | 115° |
| 2026-05-09 11:38 | 44.33387 | 13.30804 | 35081 ft | 491 kts | 115° |
| 2026-05-09 11:39 | 44.30793 | 13.39630 | 35078 ft | 492 kts | 115° |
| 2026-05-09 11:40 | 44.26899 | 13.52805 | 35079 ft | 492 kts | 115° |
| 2026-05-09 11:40 | 44.24279 | 13.61626 | 35075 ft | 492 kts | 115° |
| 2026-05-09 11:41 | 44.21631 | 13.70429 | 35076 ft | 492 kts | 116° |
| 2026-05-09 11:41 | 44.18775 | 13.79093 | 35078 ft | 492 kts | 119° |
| 2026-05-09 11:42 | 44.15778 | 13.87652 | 35067 ft | 492 kts | 119° |
| 2026-05-09 11:42 | 44.12785 | 13.96212 | 35059 ft | 492 kts | 118° |
| 2026-05-09 11:43 | 44.09842 | 14.04811 | 35069 ft | 492 kts | 118° |
| 2026-05-09 11:43 | 44.06914 | 14.13409 | 35080 ft | 492 kts | 118° |
| 2026-05-09 11:44 | 44.03961 | 14.21985 | 35071 ft | 492 kts | 118° |
| 2026-05-09 11:44 | 44.00995 | 14.30548 | 35072 ft | 492 kts | 118° |
| 2026-05-09 11:45 | 43.98028 | 14.39107 | 35079 ft | 492 kts | 118° |
| 2026-05-09 11:45 | 43.95053 | 14.47666 | 35079 ft | 492 kts | 118° |
| 2026-05-09 11:46 | 43.92074 | 14.56216 | 35073 ft | 492 kts | 118° |
| 2026-05-09 11:46 | 43.89108 | 14.64697 | 35069 ft | 492 kts | 119° |
| 2026-05-09 11:47 | 43.86111 | 14.73233 | 35075 ft | 492 kts | 119° |
| 2026-05-09 11:47 | 43.83110 | 14.81756 | 35074 ft | 492 kts | 119° |
| 2026-05-09 11:48 | 43.80099 | 14.90260 | 35076 ft | 492 kts | 119° |
| 2026-05-09 11:48 | 43.77079 | 14.98762 | 35073 ft | 492 kts | 119° |
| 2026-05-09 11:49 | 43.74054 | 15.07258 | 35068 ft | 493 kts | 119° |
| 2026-05-09 11:49 | 43.71024 | 15.15753 | 35066 ft | 493 kts | 119° |
| 2026-05-09 11:50 | 43.67989 | 15.24250 | 35066 ft | 493 kts | 119° |
| 2026-05-09 11:50 | 43.64940 | 15.32734 | 35066 ft | 493 kts | 119° |
| 2026-05-09 11:51 | 43.61886 | 15.41210 | 35063 ft | 493 kts | 119° |
| 2026-05-09 11:51 | 43.58832 | 15.49684 | 35062 ft | 493 kts | 119° |
| 2026-05-09 11:52 | 43.55775 | 15.58156 | 35058 ft | 493 kts | 119° |
| 2026-05-09 11:52 | 43.52721 | 15.66556 | 35039 ft | 493 kts | 119° |
| 2026-05-09 11:53 | 43.49642 | 15.74999 | 35051 ft | 493 kts | 119° |
| 2026-05-09 11:53 | 43.46559 | 15.83446 | 35050 ft | 493 kts | 119° |
| 2026-05-09 11:54 | 43.43467 | 15.91877 | 35056 ft | 493 kts | 119° |
| 2026-05-09 11:54 | 43.40371 | 16.00295 | 35045 ft | 493 kts | 119° |
| 2026-05-09 11:55 | 43.37266 | 16.08709 | 35039 ft | 494 kts | 119° |
| 2026-05-09 11:56 | 43.28417 | 16.32488 | 35044 ft | 494 kts | 119° |
| 2026-05-09 11:57 | 43.25285 | 16.40881 | 35074 ft | 494 kts | 118° |
| 2026-05-09 11:57 | 43.22153 | 16.49280 | 35080 ft | 495 kts | 119° |
| 2026-05-09 11:58 | 43.19007 | 16.57669 | 35077 ft | 495 kts | 119° |
| 2026-05-09 11:58 | 43.15852 | 16.66039 | 35080 ft | 495 kts | 119° |
| 2026-05-09 11:59 | 43.12711 | 16.74361 | 35071 ft | 495 kts | 119° |
| 2026-05-09 11:59 | 43.09546 | 16.82727 | 35065 ft | 495 kts | 119° |
| 2026-05-09 12:00 | 43.06370 | 16.91082 | 35041 ft | 495 kts | 119° |
| 2026-05-09 12:00 | 43.03187 | 16.99437 | 35045 ft | 495 kts | 119° |
| 2026-05-09 12:00 | 43.01581 | 17.03643 | 34872 ft | 502 kts | 119° |
| 2026-05-09 12:01 | 42.99965 | 17.07875 | 34643 ft | 502 kts | 118° |
| 2026-05-09 12:01 | 42.98350 | 17.12093 | 34415 ft | 500 kts | 118° |
| 2026-05-09 12:01 | 42.96738 | 17.16295 | 34172 ft | 499 kts | 118° |
| 2026-05-09 12:01 | 42.95126 | 17.20491 | 33915 ft | 499 kts | 118° |
| 2026-05-09 12:02 | 42.93516 | 17.24677 | 33642 ft | 497 kts | 118° |
| 2026-05-09 12:02 | 42.91913 | 17.28838 | 33374 ft | 495 kts | 118° |
| 2026-05-09 12:02 | 42.90316 | 17.32975 | 32917 ft | 492 kts | 118° |
| 2026-05-09 12:02 | 42.88722 | 17.37096 | 32285 ft | 491 kts | 118° |
| 2026-05-09 12:03 | 42.87132 | 17.41201 | 31726 ft | 489 kts | 117° |
| 2026-05-09 12:03 | 42.85548 | 17.45293 | 31142 ft | 487 kts | 117° |
| 2026-05-09 12:03 | 42.83968 | 17.49371 | 30568 ft | 486 kts | 117° |
| 2026-05-09 12:03 | 42.82390 | 17.53434 | 29989 ft | 484 kts | 117° |
| 2026-05-09 12:04 | 42.80822 | 17.57473 | 29413 ft | 480 kts | 117° |
| 2026-05-09 12:04 | 42.79267 | 17.61465 | 28892 ft | 475 kts | 117° |
| 2026-05-09 12:04 | 42.77726 | 17.65413 | 28356 ft | 470 kts | 117° |
| 2026-05-09 12:04 | 42.76199 | 17.69316 | 27839 ft | 465 kts | 117° |
| 2026-05-09 12:05 | 42.74708 | 17.73133 | 27342 ft | 460 kts | 117° |
| 2026-05-09 12:05 | 42.73214 | 17.76944 | 26911 ft | 453 kts | 118° |
| 2026-05-09 12:05 | 42.71738 | 17.80691 | 26490 ft | 446 kts | 118° |
| 2026-05-09 12:05 | 42.70284 | 17.84399 | 25976 ft | 443 kts | 118° |
| 2026-05-09 12:06 | 42.68844 | 17.88072 | 25493 ft | 438 kts | 118° |
| 2026-05-09 12:06 | 42.67415 | 17.91707 | 25044 ft | 433 kts | 118° |
| 2026-05-09 12:06 | 42.66002 | 17.95297 | 24589 ft | 429 kts | 118° |
| 2026-05-09 12:06 | 42.64602 | 17.98848 | 24130 ft | 424 kts | 118° |
| 2026-05-09 12:07 | 42.63213 | 18.02359 | 23685 ft | 420 kts | 119° |
| 2026-05-09 12:07 | 42.61832 | 18.05830 | 23177 ft | 415 kts | 119° |
| 2026-05-09 12:07 | 42.60468 | 18.09261 | 22684 ft | 411 kts | 118° |
| 2026-05-09 12:07 | 42.59122 | 18.12661 | 22212 ft | 407 kts | 118° |
| 2026-05-09 12:08 | 42.57790 | 18.16029 | 21755 ft | 403 kts | 118° |
| 2026-05-09 12:08 | 42.56471 | 18.19358 | 21256 ft | 397 kts | 118° |
| 2026-05-09 12:08 | 42.55170 | 18.22626 | 20410 ft | 392 kts | 118° |
| 2026-05-09 12:08 | 42.53877 | 18.25858 | 19617 ft | 387 kts | 118° |
| 2026-05-09 12:09 | 42.52602 | 18.29040 | 18904 ft | 381 kts | 118° |
| 2026-05-09 12:09 | 42.51353 | 18.32156 | 18345 ft | 370 kts | 118° |
| 2026-05-09 12:09 | 42.50201 | 18.35202 | 17674 ft | 360 kts | 110° |
| 2026-05-09 12:10 | 42.49395 | 18.44940 | 15740 ft | 338 kts | 91° |
| 2026-05-09 12:10 | 42.49266 | 18.48097 | 15128 ft | 333 kts | 91° |
| 2026-05-09 12:10 | 42.49141 | 18.51202 | 14531 ft | 328 kts | 91° |
| 2026-05-09 12:11 | 42.49016 | 18.54264 | 13944 ft | 323 kts | 91° |
| 2026-05-09 12:11 | 42.48890 | 18.57292 | 13292 ft | 320 kts | 91° |
| 2026-05-09 12:11 | 42.48765 | 18.60272 | 12645 ft | 314 kts | 91° |
| 2026-05-09 12:11 | 42.48640 | 18.63209 | 12013 ft | 311 kts | 91° |
| 2026-05-09 12:12 | 42.48516 | 18.66114 | 11393 ft | 307 kts | 91° |
| 2026-05-09 12:12 | 42.48394 | 18.68945 | 10789 ft | 303 kts | 91° |
| 2026-05-09 12:12 | 42.48271 | 18.71806 | 10179 ft | 298 kts | 91° |
| 2026-05-09 12:12 | 42.48151 | 18.74581 | 9546 ft | 293 kts | 91° |
| 2026-05-09 12:13 | 42.48033 | 18.77274 | 8883 ft | 288 kts | 91° |
| 2026-05-09 12:13 | 42.47916 | 18.79963 | 8254 ft | 284 kts | 92° |
| 2026-05-09 12:13 | 42.47801 | 18.82606 | 7922 ft | 280 kts | 92° |
| 2026-05-09 12:13 | 42.47686 | 18.85245 | 7796 ft | 281 kts | 92° |
| 2026-05-09 12:14 | 42.47565 | 18.87897 | 7675 ft | 283 kts | 92° |
| 2026-05-09 12:14 | 42.47443 | 18.90543 | 7544 ft | 281 kts | 92° |
| 2026-05-09 12:14 | 42.47324 | 18.93149 | 7417 ft | 271 kts | 92° |
| 2026-05-09 12:14 | 42.47210 | 18.95645 | 7291 ft | 260 kts | 92° |
| 2026-05-09 12:15 | 42.47076 | 18.98035 | 7166 ft | 250 kts | 97° |
| 2026-05-09 12:15 | 42.46591 | 19.00277 | 7044 ft | 248 kts | 112° |
| 2026-05-09 12:15 | 42.45910 | 19.02422 | 6930 ft | 248 kts | 111° |
| 2026-05-09 12:15 | 42.45233 | 19.04562 | 6798 ft | 247 kts | 111° |
| 2026-05-09 12:16 | 42.44559 | 19.06696 | 6683 ft | 246 kts | 111° |
| 2026-05-09 12:16 | 42.43885 | 19.08828 | 6562 ft | 246 kts | 111° |
| 2026-05-09 12:16 | 42.43212 | 19.10961 | 6287 ft | 246 kts | 111° |
| 2026-05-09 12:16 | 42.42542 | 19.13081 | 5934 ft | 245 kts | 111° |
| 2026-05-09 12:17 | 42.41872 | 19.15196 | 5574 ft | 244 kts | 111° |
| 2026-05-09 12:17 | 42.41207 | 19.17299 | 5217 ft | 243 kts | 112° |
| 2026-05-09 12:17 | 42.40542 | 19.19406 | 4856 ft | 243 kts | 112° |
| 2026-05-09 12:17 | 42.39880 | 19.21502 | 4515 ft | 241 kts | 113° |
| 2026-05-09 12:18 | 42.39179 | 19.23554 | 4148 ft | 240 kts | 122° |
| 2026-05-09 12:18 | 42.38085 | 19.25189 | 3809 ft | 239 kts | 144° |
| 2026-05-09 12:18 | 42.36621 | 19.26173 | 3495 ft | 236 kts | 164° |
| 2026-05-09 12:18 | 42.35045 | 19.26726 | 3190 ft | 232 kts | 166° |
| 2026-05-09 12:19 | 42.33503 | 19.27266 | 3016 ft | 225 kts | 166° |
| 2026-05-09 12:19 | 42.32031 | 19.27787 | 2880 ft | 211 kts | 166° |
| 2026-05-09 12:19 | 42.30633 | 19.28283 | 2755 ft | 207 kts | 166° |
| 2026-05-09 12:19 | 42.29245 | 19.28773 | 2629 ft | 205 kts | 166° |
| 2026-05-09 12:20 | 42.27870 | 19.29259 | 2504 ft | 200 kts | 166° |
| 2026-05-09 12:20 | 42.26566 | 19.29721 | 2378 ft | 190 kts | 165° |
| 2026-05-09 12:20 | 42.25292 | 19.30115 | 2242 ft | 187 kts | 177° |
| 2026-05-09 12:20 | 42.24047 | 19.29739 | 2106 ft | 185 kts | 210° |
| 2026-05-09 12:21 | 42.23165 | 19.28502 | 1959 ft | 187 kts | 243° |
| 2026-05-09 12:21 | 42.22930 | 19.26793 | 1890 ft | 189 kts | 277° |
| 2026-05-09 12:21 | 42.23435 | 19.25172 | 1849 ft | 190 kts | 311° |
| 2026-05-09 12:21 | 42.24533 | 19.24208 | 1807 ft | 192 kts | 346° |
| 2026-05-09 12:22 | 42.25833 | 19.24148 | 1777 ft | 179 kts | 5° |
| 2026-05-09 12:22 | 42.27022 | 19.24275 | 1663 ft | 165 kts | 5° |
| 2026-05-09 12:22 | 42.28141 | 19.24392 | 1483 ft | 157 kts | 6° |
| 2026-05-09 12:22 | 42.29204 | 19.24501 | 1287 ft | 151 kts | 6° |
| 2026-05-09 12:23 | 42.30242 | 19.24606 | 1051 ft | 150 kts | 6° |
| 2026-05-09 12:23 | 42.31275 | 19.24710 | 807 ft | 148 kts | 7° |
| 2026-05-09 12:23 | 42.32307 | 19.24820 | 614 ft | 149 kts | 7° |
| 2026-05-09 12:23 | 42.33335 | 19.24929 | 410 ft | 148 kts | 5° |
| 2026-05-09 12:24 | 42.34361 | 19.25024 | 238 ft | 147 kts | 6° |
| 2026-05-09 12:24 | 42.35364 | 19.25131 | 100 ft | 134 kts | 3° |
| 2026-05-09 12:24 | 42.36125 | 19.25206 | 110 ft | 81 kts | 4° |
| 2026-05-09 12:24 | 42.36455 | 19.25239 | 116 ft | 29 kts | 4° |
| 2026-05-09 12:25 | 42.36589 | 19.25244 | 120 ft | 9 kts | 341° |
| 2026-05-09 12:25 | 42.36616 | 19.25177 | 118 ft | 9 kts | 278° |
| 2026-05-09 12:25 | 42.36622 | 19.25092 | 118 ft | 9 kts | 275° |
| 2026-05-09 12:25 | 42.36627 | 19.25009 | 115 ft | 9 kts | 275° |
| 2026-05-09 12:26 | 42.36631 | 19.24928 | 117 ft | 8 kts | 274° |
| 2026-05-09 12:26 | 42.36641 | 19.24856 | 115 ft | 7 kts | 297° |
| 2026-05-09 12:26 | 42.36681 | 19.24829 | 118 ft | 7 kts | 356° |
| 2026-05-09 12:26 | 42.36741 | 19.24833 | 120 ft | 12 kts | 4° |
| 2026-05-09 12:27 | 42.36812 | 19.24831 | 120 ft | 3 kts | 330° |
| 2026-05-09 12:27 | 42.36820 | 19.24813 | 120 ft | 2 kts | 295° |
| 2026-05-09 12:27 | 42.36822 | 19.24801 | 121 ft | 1 kts | 282° |
| 2026-05-09 12:27 | 42.36822 | 19.24794 | 121 ft | 0 kts | 273° |
| 2026-05-09 12:28 | 42.36822 | 19.24777 | 121 ft | 3 kts | 266° |
| 2026-05-09 12:28 | 42.36821 | 19.24770 | 121 ft | 0 kts | 259° |